Terminal Aerodrome Forecast
Issued by NWS Knoxville/Tri Cities, TN

Home | Current Version | Previous Version | Text Only | Print | Product List | Glossary On
Versions: 1 2 3 4 5 6 7 8 9 10 11 12 13 14 15 16 17 18 19 20 21 22 23 24 25 26 27 28
000
FTUS44 KMRX 250531
TAFCHA
TAF
KCHA 250531Z 2506/2606 16006KT P6SM SCT050 BKN150
     FM251500 16012G18KT P6SM BKN040 BKN150
     FM252100 16009KT P6SM VCSH BKN040
     FM260200 15007KT 4SM -SHRA BR VCTS OVC040CB=

USA.gov is the U.S. government's official web portal to all federal, state and local government web resources and services.